»·PEaware :: C-EDGE KSBA-KBUR

C-EDGE :: KSBA-KBUR

FLIGHT INFORMATION

Flight Status: Arrived
Operator: Privately registered:
Canada
More flights under this callsign
Pilot: Scott G. (88)
Aircraft: PIPER PA-44 SEMINOLE
(PA44)
More flights by this aircraft type
Origin: KSBA Santa Barbara Mun
United States
Destination: KBUR Bob Hope-Burbank
United States
More flights between these airports :: More routes between these airports
Route: FIM DCT
File this flight plan on PilotEdge
Remarks: Cat 8, please
Altitude:
(Current/Filed)
9,500ft
Speed:
(Current/Filed)
150kts
Departed: 01-Feb-17 09:34 AM
Arrived: 01-Feb-17 10:10 AM
Distance/Time
Traveled:
74nm/0:36
Distance/Time
To Go:
Arrived

Flight Plot

Page will automatically refresh every two minutes.

Flight plan parsing failed; only flown route is shown


Map Options




Map Legend


Flown Route
Filed Route
Departure Airport
Arrival Airport
Navaid (VOR, NDB)
Fix

Horizontal Profiles

Position Reports

Time Latitude Longitude Heading Altitude Ground
Speed
01-Feb-17 09:20 34.432562 -119.835087 71 13ft 0kts
01-Feb-17 09:21 34.432562 -119.835087 71 13ft 0kts
01-Feb-17 09:22 34.432562 -119.835034 115 13ft 2kts
01-Feb-17 09:23 34.432332 -119.835263 231 13ft 0kts
01-Feb-17 09:24 34.432332 -119.835263 231 13ft 0kts
01-Feb-17 09:25 34.432332 -119.835263 231 13ft 0kts
01-Feb-17 09:26 34.432332 -119.835263 231 13ft 0kts
01-Feb-17 09:27 34.432332 -119.835263 231 13ft 0kts
01-Feb-17 09:28 34.432332 -119.835263 231 13ft 0kts
01-Feb-17 09:29 34.432332 -119.835263 231 13ft 0kts
01-Feb-17 09:30 34.431671 -119.836542 250 13ft 12kts
01-Feb-17 09:31 34.430951 -119.839690 275 13ft 0kts
01-Feb-17 09:32 34.430951 -119.839690 275 13ft 0kts
01-Feb-17 09:33 34.430874 -119.839825 220 13ft 0kts
01-Feb-17 09:34 34.427869 -119.839472 164 12ft 65kts
01-Feb-17 09:35 34.398962 -119.831231 169 1360ft 116kts
01-Feb-17 09:36 34.364280 -119.823107 157 2552ft 131kts
01-Feb-17 09:37 34.337931 -119.799086 116 3898ft 120kts
01-Feb-17 09:38 34.322624 -119.761771 115 4876ft 126kts
01-Feb-17 09:39 34.313820 -119.740228 116 5616ft 120kts
01-Feb-17 09:40 34.296680 -119.698136 116 6981ft 125kts
01-Feb-17 09:41 34.281043 -119.659835 116 7983ft 128kts
01-Feb-17 09:42 34.267451 -119.620739 89 8976ft 126kts
01-Feb-17 09:43 34.267327 -119.584478 91 9507ft 144kts
01-Feb-17 09:44 34.265573 -119.539128 92 9498ft 160kts
01-Feb-17 09:45 34.262639 -119.481494 93 9503ft 161kts
01-Feb-17 09:46 34.260886 -119.448958 93 9500ft 162kts
01-Feb-17 09:47 34.258080 -119.397372 93 9499ft 162kts
01-Feb-17 09:48 34.256052 -119.360424 93 9500ft 162kts
01-Feb-17 09:49 34.253981 -119.322234 94 9493ft 162kts
01-Feb-17 09:50 34.251133 -119.270086 94 9481ft 162kts
01-Feb-17 09:51 34.247656 -119.206527 94 9481ft 162kts
01-Feb-17 09:52 34.244500 -119.149058 94 8810ft 178kts
01-Feb-17 09:53 34.241204 -119.088967 94 8011ft 179kts
01-Feb-17 09:54 34.237901 -119.028901 94 7211ft 179kts
01-Feb-17 09:55 34.234616 -118.969235 94 6414ft 178kts
01-Feb-17 09:56 34.231858 -118.919537 94 5749ft 178kts
01-Feb-17 09:57 34.228770 -118.863813 94 4930ft 157kts
01-Feb-17 09:58 34.225717 -118.812225 95 4276ft 151kts
01-Feb-17 09:59 34.221701 -118.762093 95 3698ft 147kts
01-Feb-17 10:00 34.217840 -118.713539 95 3192ft 143kts
01-Feb-17 10:01 34.214226 -118.667907 95 3079ft 131kts
01-Feb-17 10:02 34.210842 -118.624848 95 3081ft 128kts
01-Feb-17 10:03 34.207491 -118.582133 95 3081ft 127kts
01-Feb-17 10:04 34.204200 -118.540116 95 3081ft 127kts
01-Feb-17 10:05 34.200951 -118.498463 95 3081ft 119kts
01-Feb-17 10:06 34.198004 -118.460138 95 3042ft 112kts
01-Feb-17 10:07 34.198596 -118.425454 88 2422ft 100kts
01-Feb-17 10:08 34.198336 -118.395076 90 1401ft 88kts
01-Feb-17 10:09 34.197907 -118.368786 90 743ft 68kts
01-Feb-17 10:10 34.197011 -118.360299 177 713ft 0kts
01-Feb-17 10:11 34.197011 -118.360299 177 713ft 0kts
01-Feb-17 10:12 34.196832 -118.360885 264 714ft 9kts
01-Feb-17 10:13 34.196739 -118.365491 200 719ft 9kts
01-Feb-17 10:14 34.196176 -118.365495 64 718ft 0kts

Navigation Log

Ident Type
Flight plan parsing failed, navigation log unavailable